createdAt,value
2019-05-23T00:01:34.210Z,9.15
2019-05-23T00:04:21.624Z,8.78
2019-05-23T00:06:53.477Z,9.60
2019-05-23T00:09:37.513Z,9.00
2019-05-23T00:12:31.854Z,9.45
2019-05-23T00:15:14.153Z,8.98
2019-05-23T00:17:49.574Z,9.88
2019-05-23T00:20:29.869Z,9.48
2019-05-23T00:23:23.322Z,9.80
2019-05-23T00:25:56.177Z,10.15
2019-05-23T00:28:27.547Z,9.50
2019-05-23T00:31:02.947Z,10.03
2019-05-23T00:33:37.976Z,9.28
2019-05-23T00:36:14.449Z,10.05
2019-05-23T00:38:46.051Z,10.05
2019-05-23T00:41:17.600Z,10.28
2019-05-23T00:43:49.180Z,10.20
2019-05-23T00:46:23.079Z,9.55
2019-05-23T00:48:56.687Z,10.55
2019-05-23T00:51:27.458Z,10.35
2019-05-23T00:53:58.781Z,10.30
2019-05-23T00:56:32.607Z,10.55
2019-05-23T00:59:04.460Z,11.25
2019-05-23T01:01:51.054Z,10.00
2019-05-23T01:04:23.392Z,9.75
2019-05-23T01:06:54.330Z,9.68
2019-05-23T01:09:28.101Z,9.55
2019-05-23T01:12:00.029Z,10.10
2019-05-23T01:14:31.486Z,10.70
2019-05-23T01:17:02.987Z,10.58
2019-05-23T01:19:36.502Z,10.13
2019-05-23T01:22:14.350Z,10.60
2019-05-23T01:24:47.861Z,10.70
2019-05-23T01:27:19.586Z,10.08
2019-05-23T01:29:54.648Z,10.72
2019-05-23T01:32:56.234Z,10.65
2019-05-23T01:35:29.164Z,10.13
2019-05-23T01:41:04.899Z,10.63
2019-05-23T01:43:54.490Z,11.20
2019-05-23T01:46:31.865Z,11.50
2019-05-23T01:49:05.999Z,10.55
2019-05-23T01:51:38.047Z,11.28
2019-05-23T01:54:22.916Z,11.28
2019-05-23T01:56:53.601Z,10.93
2019-05-23T01:59:41.177Z,10.45
2019-05-23T02:02:13.859Z,10.88
2019-05-23T02:04:45.772Z,10.18
2019-05-23T02:07:18.781Z,10.58
2019-05-23T02:09:52.331Z,10.68
2019-05-23T02:12:23.660Z,10.78
2019-05-23T02:14:57.159Z,9.78
2019-05-23T02:17:41.323Z,10.90
2019-05-23T02:20:14.178Z,10.98
2019-05-23T02:23:00.677Z,11.55
2019-05-23T02:25:33.436Z,10.65
2019-05-23T02:28:17.019Z,9.90
2019-05-23T02:30:48.388Z,11.63
2019-05-23T02:33:19.743Z,10.58
2019-05-23T02:35:53.289Z,10.72
2019-05-23T02:38:49.284Z,9.95
2019-05-23T02:41:41.113Z,10.85
2019-05-23T02:44:35.319Z,10.43
2019-05-23T02:47:25.964Z,10.70
2019-05-23T02:50:37.322Z,10.10
2019-05-23T02:53:23.009Z,10.63
2019-05-23T02:55:58.329Z,9.85
2019-05-23T02:59:31.450Z,10.40
2019-05-23T03:03:12.768Z,9.70
2019-05-23T03:06:00.998Z,10.15
2019-05-23T03:08:38.420Z,9.95
2019-05-23T03:11:49.687Z,10.95
2019-05-23T03:14:31.145Z,10.48
2019-05-23T03:17:21.897Z,10.13
2019-05-23T03:20:48.302Z,10.55
2019-05-23T03:23:49.548Z,10.40
2019-05-23T03:27:28.110Z,10.25
2019-05-23T03:30:40.322Z,10.23
2019-05-23T03:36:19.072Z,10.70
2019-05-23T03:38:52.481Z,10.78
2019-05-23T07:26:40.403Z,10.40
2019-05-23T07:29:53.302Z,10.75
2019-05-23T07:32:47.036Z,10.20
2019-05-23T07:35:19.310Z,10.95
2019-05-23T07:37:50.303Z,11.68
2019-05-23T07:47:48.006Z,12.28
2019-05-23T07:53:59.859Z,13.35
2019-05-23T07:56:46.772Z,12.58
2019-05-23T11:54:14.672Z,4.12
2019-05-23T11:56:46.660Z,3.65
2019-05-23T12:00:06.420Z,3.17
2019-05-23T12:02:44.087Z,2.77
2019-05-23T12:05:19.321Z,3.00
2019-05-23T12:10:51.555Z,2.65
2019-05-23T12:13:21.989Z,3.10
2019-05-23T12:15:53.175Z,2.87
2019-05-23T12:18:23.476Z,2.95
2019-05-23T12:20:59.431Z,2.40
2019-05-23T12:23:28.158Z,2.40
2019-05-23T12:25:59.107Z,3.52
2019-05-23T12:28:30.108Z,2.67
2019-05-23T12:31:01.050Z,2.40
2019-05-23T12:33:49.432Z,2.87
2019-05-23T12:36:20.327Z,3.90
2019-05-23T12:38:51.141Z,3.22
2019-05-23T12:41:41.636Z,2.72
2019-05-23T12:44:20.667Z,3.00
2019-05-23T12:46:51.858Z,3.10
2019-05-23T12:49:28.705Z,1.82
2019-05-23T12:52:02.281Z,2.27
2019-05-23T12:57:27.363Z,1.67
2019-05-23T12:59:59.726Z,2.00
2019-05-23T13:05:26.377Z,1.40
2019-05-23T13:07:57.144Z,1.20
2019-05-23T13:10:27.848Z,1.15
2019-05-23T13:12:58.273Z,1.20
2019-05-23T13:21:16.359Z,1.47
2019-05-23T13:24:14.643Z,1.20
2019-05-23T13:26:45.755Z,1.00
2019-05-23T13:29:24.071Z,0.93
2019-05-23T13:31:53.806Z,2.25
2019-05-23T13:34:24.424Z,1.07
2019-05-23T13:36:54.848Z,0.90
2019-05-23T13:39:26.551Z,2.37
2019-05-23T13:41:57.353Z,2.22
2019-05-23T13:44:55.884Z,2.55
2019-05-23T13:47:27.306Z,3.85
2019-05-23T13:49:58.117Z,2.45
2019-05-23T13:52:28.514Z,2.35
2019-05-23T13:55:01.305Z,2.55
2019-05-23T13:57:32.189Z,3.02
2019-05-23T14:00:03.364Z,2.65
2019-05-23T14:02:40.445Z,3.58
2019-05-23T14:05:11.167Z,2.98
2019-05-23T14:07:42.915Z,3.55
2019-05-23T14:13:59.584Z,4.42
2019-05-23T14:16:24.260Z,5.22
2019-05-23T14:18:55.066Z,4.58
2019-05-23T14:21:44.435Z,4.97
2019-05-23T14:24:16.728Z,3.37
2019-05-23T14:26:57.151Z,4.25
2019-05-23T14:29:27.926Z,3.30
2019-05-23T14:32:12.184Z,3.58
2019-05-23T14:34:42.643Z,3.70
2019-05-23T14:37:20.932Z,4.72
2019-05-23T14:39:56.376Z,3.70
2019-05-23T14:42:45.934Z,3.50
2019-05-23T14:48:28.318Z,4.15
2019-05-23T14:51:13.197Z,4.95
2019-05-23T14:53:48.141Z,4.55
2019-05-23T14:56:20.244Z,3.65
2019-05-23T14:59:04.871Z,3.83
2019-05-23T15:01:37.435Z,3.67
2019-05-23T15:04:11.835Z,3.12
2019-05-23T15:06:43.042Z,3.98
2019-05-23T15:09:13.665Z,3.33
2019-05-23T15:11:45.866Z,3.85
2019-05-23T15:14:16.702Z,4.25
2019-05-23T15:16:57.151Z,3.40
2019-05-23T15:19:44.268Z,3.58
2019-05-23T15:25:11.495Z,3.40
2019-05-23T15:27:45.136Z,3.10
2019-05-23T15:30:17.749Z,3.30
2019-05-23T15:32:49.200Z,3.70
2019-05-23T15:35:39.070Z,3.72
2019-05-23T15:38:09.418Z,3.40
2019-05-23T15:40:39.776Z,3.77
2019-05-23T15:43:10.405Z,3.25
2019-05-23T15:45:40.970Z,2.80
2019-05-23T15:48:12.900Z,3.05
2019-05-23T15:50:50.733Z,2.80
2019-05-23T15:53:39.310Z,2.98
2019-05-23T15:56:38.447Z,3.15
2019-05-23T16:04:10.353Z,3.20
2019-05-23T16:09:56.738Z,3.22
2019-05-23T18:40:07.895Z,1.98
2019-05-23T18:42:39.205Z,2.20
2019-05-23T18:45:10.530Z,2.15
2019-05-23T18:50:39.938Z,2.42
2019-05-23T18:53:11.134Z,2.02
2019-05-23T18:55:41.676Z,2.10
2019-05-23T18:58:12.800Z,2.08
2019-05-23T19:01:32.452Z,2.00
2019-05-23T19:04:04.270Z,2.45
2019-05-23T19:06:35.853Z,1.90
2019-05-23T19:09:26.507Z,2.12
2019-05-23T19:11:58.225Z,1.70
2019-05-23T19:14:29.600Z,1.80
2019-05-23T19:17:05.083Z,1.90
2019-05-23T19:22:49.787Z,2.02
2019-05-23T19:25:20.868Z,2.20
2019-05-23T19:27:51.587Z,1.80
2019-05-23T19:30:26.423Z,2.25
2019-05-23T19:32:57.545Z,1.92
2019-05-23T19:35:36.476Z,2.30
2019-05-23T19:38:08.221Z,2.50
2019-05-23T19:40:46.643Z,2.25
2019-05-23T19:51:47.344Z,2.35
2019-05-23T19:54:40.611Z,2.02
2019-05-23T19:57:15.145Z,2.25
2019-05-23T19:59:45.769Z,2.87
2019-05-23T20:02:38.403Z,2.70
2019-05-23T20:05:17.747Z,2.60
2019-05-23T20:07:49.456Z,2.95
2019-05-23T20:10:22.414Z,2.60
2019-05-23T20:12:53.410Z,3.20
2019-05-23T20:15:27.448Z,3.12
2019-05-23T20:18:23.937Z,2.95
2019-05-23T20:20:56.315Z,2.77
2019-05-23T20:23:26.964Z,2.70
2019-05-23T20:25:58.285Z,2.90
2019-05-23T20:28:46.766Z,2.83
2019-05-23T20:31:23.092Z,3.05
2019-05-23T20:33:54.484Z,2.70
2019-05-23T20:36:57.910Z,2.72
2019-05-23T20:39:46.417Z,2.85
2019-05-23T20:42:27.874Z,2.42
2019-05-23T20:45:00.646Z,2.58
2019-05-23T20:47:38.773Z,3.12
2019-05-23T20:50:15.614Z,3.00
2019-05-23T20:52:53.769Z,3.30
2019-05-23T20:55:41.638Z,3.42
2019-05-23T20:58:27.740Z,3.40
2019-05-23T21:01:16.556Z,3.55
2019-05-23T21:04:02.569Z,3.05
2019-05-23T21:06:37.628Z,3.10
2019-05-23T21:09:25.170Z,3.10
2019-05-23T21:12:28.323Z,3.08
2019-05-23T21:14:47.071Z,3.50
2019-05-23T21:17:20.895Z,3.60
2019-05-23T21:19:52.064Z,4.25
2019-05-23T21:22:53.973Z,4.10
2019-05-23T21:25:25.599Z,3.87
